sensor_id;sensor_type;location;lat;lon;timestamp;P1;durP1;ratioP1;P2;durP2;ratioP2
21235;SDS011;10775;42.678;26.324;2023-03-15T00:01:25;4.65;;;2.88;;
21235;SDS011;10775;42.678;26.324;2023-03-15T00:03:51;5.68;;;2.70;;
21235;SDS011;10775;42.678;26.324;2023-03-15T00:06:19;5.45;;;2.92;;
21235;SDS011;10775;42.678;26.324;2023-03-15T00:08:45;5.13;;;2.70;;
21235;SDS011;10775;42.678;26.324;2023-03-15T00:11:11;6.13;;;2.90;;
21235;SDS011;10775;42.678;26.324;2023-03-15T00:13:38;4.70;;;3.08;;
21235;SDS011;10775;42.678;26.324;2023-03-15T00:16:04;4.57;;;2.47;;
21235;SDS011;10775;42.678;26.324;2023-03-15T00:18:29;5.28;;;3.05;;
21235;SDS011;10775;42.678;26.324;2023-03-15T00:20:56;4.68;;;2.53;;
21235;SDS011;10775;42.678;26.324;2023-03-15T00:23:22;6.72;;;2.63;;
21235;SDS011;10775;42.678;26.324;2023-03-15T00:25:48;4.13;;;2.90;;
21235;SDS011;10775;42.678;26.324;2023-03-15T00:28:14;4.38;;;2.30;;
21235;SDS011;10775;42.678;26.324;2023-03-15T00:30:40;3.97;;;2.65;;
21235;SDS011;10775;42.678;26.324;2023-03-15T00:33:06;4.55;;;2.50;;
21235;SDS011;10775;42.678;26.324;2023-03-15T00:35:32;6.95;;;2.67;;
21235;SDS011;10775;42.678;26.324;2023-03-15T00:38:02;3.20;;;2.05;;
21235;SDS011;10775;42.678;26.324;2023-03-15T00:40:28;5.68;;;2.67;;
21235;SDS011;10775;42.678;26.324;2023-03-15T00:42:54;3.78;;;2.20;;
21235;SDS011;10775;42.678;26.324;2023-03-15T00:45:21;4.03;;;1.95;;
21235;SDS011;10775;42.678;26.324;2023-03-15T00:47:48;4.43;;;2.20;;
21235;SDS011;10775;42.678;26.324;2023-03-15T00:50:14;2.63;;;1.77;;
21235;SDS011;10775;42.678;26.324;2023-03-15T00:52:40;4.15;;;2.25;;
21235;SDS011;10775;42.678;26.324;2023-03-15T00:55:09;5.78;;;2.15;;
21235;SDS011;10775;42.678;26.324;2023-03-15T00:57:39;4.25;;;2.33;;
21235;SDS011;10775;42.678;26.324;2023-03-15T01:00:07;3.60;;;2.03;;
21235;SDS011;10775;42.678;26.324;2023-03-15T01:02:38;3.17;;;2.03;;
21235;SDS011;10775;42.678;26.324;2023-03-15T01:05:05;3.38;;;2.28;;
21235;SDS011;10775;42.678;26.324;2023-03-15T01:07:31;4.50;;;2.20;;
21235;SDS011;10775;42.678;26.324;2023-03-15T01:10:00;5.07;;;2.35;;
21235;SDS011;10775;42.678;26.324;2023-03-15T01:12:27;3.53;;;1.85;;
21235;SDS011;10775;42.678;26.324;2023-03-15T01:14:53;3.00;;;2.00;;
21235;SDS011;10775;42.678;26.324;2023-03-15T01:17:19;3.70;;;1.88;;
21235;SDS011;10775;42.678;26.324;2023-03-15T01:19:45;3.97;;;2.22;;
21235;SDS011;10775;42.678;26.324;2023-03-15T01:22:10;3.65;;;1.85;;
21235;SDS011;10775;42.678;26.324;2023-03-15T01:24:36;3.05;;;1.92;;
21235;SDS011;10775;42.678;26.324;2023-03-15T01:27:01;3.92;;;2.10;;
21235;SDS011;10775;42.678;26.324;2023-03-15T01:29:27;5.43;;;2.03;;
21235;SDS011;10775;42.678;26.324;2023-03-15T01:31:52;4.07;;;2.15;;
21235;SDS011;10775;42.678;26.324;2023-03-15T01:34:18;3.50;;;2.30;;
21235;SDS011;10775;42.678;26.324;2023-03-15T01:36:43;3.75;;;2.20;;
21235;SDS011;10775;42.678;26.324;2023-03-15T01:39:09;4.93;;;2.30;;
21235;SDS011;10775;42.678;26.324;2023-03-15T01:41:35;2.58;;;1.77;;
21235;SDS011;10775;42.678;26.324;2023-03-15T01:44:01;3.95;;;2.13;;
21235;SDS011;10775;42.678;26.324;2023-03-15T01:46:30;2.85;;;2.00;;
21235;SDS011;10775;42.678;26.324;2023-03-15T01:49:10;3.95;;;1.65;;
21235;SDS011;10775;42.678;26.324;2023-03-15T01:51:48;2.97;;;1.70;;
21235;SDS011;10775;42.678;26.324;2023-03-15T01:54:42;3.10;;;2.00;;
21235;SDS011;10775;42.678;26.324;2023-03-15T01:57:31;2.63;;;1.77;;
21235;SDS011;10775;42.678;26.324;2023-03-15T02:00:06;4.28;;;1.98;;
21235;SDS011;10775;42.678;26.324;2023-03-15T02:02:37;4.55;;;1.80;;
21235;SDS011;10775;42.678;26.324;2023-03-15T02:05:11;3.67;;;2.00;;
21235;SDS011;10775;42.678;26.324;2023-03-15T02:07:41;5.03;;;2.17;;
21235;SDS011;10775;42.678;26.324;2023-03-15T02:10:14;2.20;;;1.65;;
21235;SDS011;10775;42.678;26.324;2023-03-15T02:12:44;4.28;;;1.80;;
21235;SDS011;10775;42.678;26.324;2023-03-15T02:15:12;5.22;;;2.10;;
21235;SDS011;10775;42.678;26.324;2023-03-15T02:17:39;3.13;;;1.80;;
21235;SDS011;10775;42.678;26.324;2023-03-15T02:25:31;4.13;;;2.10;;
21235;SDS011;10775;42.678;26.324;2023-03-15T02:28:03;3.15;;;1.52;;
21235;SDS011;10775;42.678;26.324;2023-03-15T02:30:31;3.42;;;1.80;;
21235;SDS011;10775;42.678;26.324;2023-03-15T02:32:57;2.67;;;1.80;;
21235;SDS011;10775;42.678;26.324;2023-03-15T02:35:28;4.15;;;1.95;;
21235;SDS011;10775;42.678;26.324;2023-03-15T02:37:56;3.15;;;1.83;;
21235;SDS011;10775;42.678;26.324;2023-03-15T02:40:23;3.65;;;2.00;;
21235;SDS011;10775;42.678;26.324;2023-03-15T02:42:52;4.25;;;1.90;;
21235;SDS011;10775;42.678;26.324;2023-03-15T02:45:21;2.83;;;2.05;;
21235;SDS011;10775;42.678;26.324;2023-03-15T02:47:48;4.03;;;1.80;;
21235;SDS011;10775;42.678;26.324;2023-03-15T02:50:15;3.55;;;1.88;;
21235;SDS011;10775;42.678;26.324;2023-03-15T02:52:41;4.90;;;2.03;;
21235;SDS011;10775;42.678;26.324;2023-03-15T02:55:06;4.30;;;2.05;;
21235;SDS011;10775;42.678;26.324;2023-03-15T02:57:32;3.35;;;1.85;;
21235;SDS011;10775;42.678;26.324;2023-03-15T02:59:58;2.28;;;1.77;;
21235;SDS011;10775;42.678;26.324;2023-03-15T03:02:24;3.47;;;1.67;;
21235;SDS011;10775;42.678;26.324;2023-03-15T03:04:50;2.60;;;1.92;;
21235;SDS011;10775;42.678;26.324;2023-03-15T03:07:17;2.67;;;1.73;;
21235;SDS011;10775;42.678;26.324;2023-03-15T03:09:43;2.67;;;1.90;;
21235;SDS011;10775;42.678;26.324;2023-03-15T03:12:08;3.33;;;2.00;;
21235;SDS011;10775;42.678;26.324;2023-03-15T03:14:34;3.20;;;1.60;;
21235;SDS011;10775;42.678;26.324;2023-03-15T03:16:59;3.08;;;1.70;;
21235;SDS011;10775;42.678;26.324;2023-03-15T03:19:25;3.63;;;1.80;;
21235;SDS011;10775;42.678;26.324;2023-03-15T03:21:51;5.88;;;1.92;;
21235;SDS011;10775;42.678;26.324;2023-03-15T03:24:18;3.35;;;2.05;;
21235;SDS011;10775;42.678;26.324;2023-03-15T03:26:44;3.78;;;2.20;;
21235;SDS011;10775;42.678;26.324;2023-03-15T03:29:13;5.20;;;2.50;;
21235;SDS011;10775;42.678;26.324;2023-03-15T03:31:42;8.20;;;3.00;;
21235;SDS011;10775;42.678;26.324;2023-03-15T03:34:09;5.95;;;2.42;;
21235;SDS011;10775;42.678;26.324;2023-03-15T03:36:38;3.63;;;1.95;;
21235;SDS011;10775;42.678;26.324;2023-03-15T03:39:03;5.32;;;2.10;;
21235;SDS011;10775;42.678;26.324;2023-03-15T03:41:29;2.58;;;1.73;;
21235;SDS011;10775;42.678;26.324;2023-03-15T03:43:55;3.15;;;1.67;;
21235;SDS011;10775;42.678;26.324;2023-03-15T03:46:20;3.35;;;1.80;;
21235;SDS011;10775;42.678;26.324;2023-03-15T03:48:46;3.08;;;1.92;;
21235;SDS011;10775;42.678;26.324;2023-03-15T03:51:11;2.35;;;1.45;;
21235;SDS011;10775;42.678;26.324;2023-03-15T03:53:37;2.72;;;1.80;;
21235;SDS011;10775;42.678;26.324;2023-03-15T03:56:03;4.45;;;2.28;;
21235;SDS011;10775;42.678;26.324;2023-03-15T03:58:30;6.30;;;2.25;;
21235;SDS011;10775;42.678;26.324;2023-03-15T04:00:55;2.70;;;1.80;;
21235;SDS011;10775;42.678;26.324;2023-03-15T04:03:21;3.38;;;2.00;;
21235;SDS011;10775;42.678;26.324;2023-03-15T04:08:20;3.22;;;2.15;;
21235;SDS011;10775;42.678;26.324;2023-03-15T04:10:53;4.03;;;2.03;;
21235;SDS011;10775;42.678;26.324;2023-03-15T04:13:21;3.00;;;2.00;;
21235;SDS011;10775;42.678;26.324;2023-03-15T04:15:48;3.90;;;2.00;;
21235;SDS011;10775;42.678;26.324;2023-03-15T04:18:14;3.97;;;2.50;;
21235;SDS011;10775;42.678;26.324;2023-03-15T04:20:40;3.63;;;1.92;;
21235;SDS011;10775;42.678;26.324;2023-03-15T04:23:11;3.25;;;2.08;;
21235;SDS011;10775;42.678;26.324;2023-03-15T04:25:40;3.35;;;1.98;;
21235;SDS011;10775;42.678;26.324;2023-03-15T04:28:07;4.03;;;2.35;;
21235;SDS011;10775;42.678;26.324;2023-03-15T04:30:34;5.05;;;2.65;;
21235;SDS011;10775;42.678;26.324;2023-03-15T04:33:01;4.20;;;2.35;;
21235;SDS011;10775;42.678;26.324;2023-03-15T04:35:28;3.72;;;2.33;;
21235;SDS011;10775;42.678;26.324;2023-03-15T04:37:55;5.28;;;2.60;;
21235;SDS011;10775;42.678;26.324;2023-03-15T04:40:22;4.18;;;2.45;;
21235;SDS011;10775;42.678;26.324;2023-03-15T04:42:53;10.00;;;4.28;;
21235;SDS011;10775;42.678;26.324;2023-03-15T04:45:20;10.48;;;4.05;;
21235;SDS011;10775;42.678;26.324;2023-03-15T04:47:45;9.43;;;3.50;;
21235;SDS011;10775;42.678;26.324;2023-03-15T04:50:12;7.00;;;3.58;;
21235;SDS011;10775;42.678;26.324;2023-03-15T04:52:38;7.40;;;3.15;;
21235;SDS011;10775;42.678;26.324;2023-03-15T04:55:04;5.95;;;3.03;;
21235;SDS011;10775;42.678;26.324;2023-03-15T04:57:29;5.63;;;3.35;;
21235;SDS011;10775;42.678;26.324;2023-03-15T04:59:55;7.25;;;3.30;;
21235;SDS011;10775;42.678;26.324;2023-03-15T05:02:21;5.65;;;2.78;;
21235;SDS011;10775;42.678;26.324;2023-03-15T05:04:46;5.18;;;3.00;;
21235;SDS011;10775;42.678;26.324;2023-03-15T05:07:12;4.68;;;2.80;;
21235;SDS011;10775;42.678;26.324;2023-03-15T05:09:37;4.32;;;2.97;;
21235;SDS011;10775;42.678;26.324;2023-03-15T05:12:03;5.00;;;2.90;;
21235;SDS011;10775;42.678;26.324;2023-03-15T05:14:30;9.60;;;2.78;;
21235;SDS011;10775;42.678;26.324;2023-03-15T05:16:55;5.55;;;2.58;;
21235;SDS011;10775;42.678;26.324;2023-03-15T05:19:23;3.42;;;2.30;;
21235;SDS011;10775;42.678;26.324;2023-03-15T05:21:51;4.70;;;3.13;;
21235;SDS011;10775;42.678;26.324;2023-03-15T05:24:18;6.57;;;3.88;;
21235;SDS011;10775;42.678;26.324;2023-03-15T05:26:44;6.18;;;3.58;;
21235;SDS011;10775;42.678;26.324;2023-03-15T05:29:11;7.00;;;4.15;;
21235;SDS011;10775;42.678;26.324;2023-03-15T05:31:37;6.90;;;4.22;;
21235;SDS011;10775;42.678;26.324;2023-03-15T05:34:03;5.97;;;3.45;;
21235;SDS011;10775;42.678;26.324;2023-03-15T05:36:29;6.43;;;3.25;;
21235;SDS011;10775;42.678;26.324;2023-03-15T05:38:55;7.25;;;3.33;;
21235;SDS011;10775;42.678;26.324;2023-03-15T05:41:21;6.00;;;3.95;;
21235;SDS011;10775;42.678;26.324;2023-03-15T05:43:46;6.30;;;3.95;;
21235;SDS011;10775;42.678;26.324;2023-03-15T05:46:12;7.40;;;4.10;;
21235;SDS011;10775;42.678;26.324;2023-03-15T05:48:37;7.30;;;4.30;;
21235;SDS011;10775;42.678;26.324;2023-03-15T05:51:03;8.18;;;4.35;;
21235;SDS011;10775;42.678;26.324;2023-03-15T05:53:28;7.93;;;4.45;;
21235;SDS011;10775;42.678;26.324;2023-03-15T05:55:54;10.23;;;4.22;;
21235;SDS011;10775;42.678;26.324;2023-03-15T05:58:19;8.52;;;4.60;;
21235;SDS011;10775;42.678;26.324;2023-03-15T06:00:44;8.02;;;4.60;;
21235;SDS011;10775;42.678;26.324;2023-03-15T06:03:10;10.32;;;5.30;;
21235;SDS011;10775;42.678;26.324;2023-03-15T06:05:35;7.88;;;4.97;;
21235;SDS011;10775;42.678;26.324;2023-03-15T06:08:01;5.82;;;3.58;;
21235;SDS011;10775;42.678;26.324;2023-03-15T06:10:26;8.32;;;4.35;;
21235;SDS011;10775;42.678;26.324;2023-03-15T06:12:52;6.57;;;4.03;;
21235;SDS011;10775;42.678;26.324;2023-03-15T06:15:18;7.53;;;3.65;;
21235;SDS011;10775;42.678;26.324;2023-03-15T06:17:44;7.65;;;3.42;;
21235;SDS011;10775;42.678;26.324;2023-03-15T06:20:09;5.95;;;3.47;;
21235;SDS011;10775;42.678;26.324;2023-03-15T06:22:35;6.22;;;3.85;;
21235;SDS011;10775;42.678;26.324;2023-03-15T06:25:01;6.00;;;3.55;;
21235;SDS011;10775;42.678;26.324;2023-03-15T06:27:27;8.38;;;3.70;;
21235;SDS011;10775;42.678;26.324;2023-03-15T06:29:53;6.57;;;3.42;;
21235;SDS011;10775;42.678;26.324;2023-03-15T06:32:19;7.70;;;3.55;;
21235;SDS011;10775;42.678;26.324;2023-03-15T06:34:44;4.85;;;2.72;;
21235;SDS011;10775;42.678;26.324;2023-03-15T06:37:09;6.82;;;3.53;;
21235;SDS011;10775;42.678;26.324;2023-03-15T06:39:38;7.20;;;4.25;;
21235;SDS011;10775;42.678;26.324;2023-03-15T06:42:04;9.23;;;4.32;;
21235;SDS011;10775;42.678;26.324;2023-03-15T06:44:32;7.82;;;4.07;;
21235;SDS011;10775;42.678;26.324;2023-03-15T06:47:00;8.57;;;4.28;;
21235;SDS011;10775;42.678;26.324;2023-03-15T06:49:26;6.65;;;4.60;;
21235;SDS011;10775;42.678;26.324;2023-03-15T06:51:52;6.22;;;4.28;;
21235;SDS011;10775;42.678;26.324;2023-03-15T06:54:17;8.48;;;4.53;;
21235;SDS011;10775;42.678;26.324;2023-03-15T06:56:43;11.45;;;5.43;;
21235;SDS011;10775;42.678;26.324;2023-03-15T06:59:08;10.65;;;5.15;;
21235;SDS011;10775;42.678;26.324;2023-03-15T07:01:34;5.93;;;3.90;;
21235;SDS011;10775;42.678;26.324;2023-03-15T07:03:59;6.30;;;3.80;;
21235;SDS011;10775;42.678;26.324;2023-03-15T07:06:25;6.35;;;3.70;;
21235;SDS011;10775;42.678;26.324;2023-03-15T07:08:52;8.20;;;3.47;;
21235;SDS011;10775;42.678;26.324;2023-03-15T07:11:18;6.60;;;3.78;;
21235;SDS011;10775;42.678;26.324;2023-03-15T07:13:44;7.57;;;4.03;;
21235;SDS011;10775;42.678;26.324;2023-03-15T07:16:09;8.18;;;3.72;;
21235;SDS011;10775;42.678;26.324;2023-03-15T07:18:35;7.47;;;3.65;;
21235;SDS011;10775;42.678;26.324;2023-03-15T07:21:01;6.75;;;3.53;;
21235;SDS011;10775;42.678;26.324;2023-03-15T07:23:27;5.55;;;3.40;;
21235;SDS011;10775;42.678;26.324;2023-03-15T07:25:54;6.10;;;3.80;;
21235;SDS011;10775;42.678;26.324;2023-03-15T07:28:20;5.20;;;3.08;;
21235;SDS011;10775;42.678;26.324;2023-03-15T07:30:53;6.45;;;3.88;;
21235;SDS011;10775;42.678;26.324;2023-03-15T07:33:22;7.88;;;3.35;;
21235;SDS011;10775;42.678;26.324;2023-03-15T07:35:48;4.70;;;3.30;;
21235;SDS011;10775;42.678;26.324;2023-03-15T07:38:15;6.68;;;3.38;;
21235;SDS011;10775;42.678;26.324;2023-03-15T07:40:40;6.45;;;4.07;;
21235;SDS011;10775;42.678;26.324;2023-03-15T07:43:06;6.28;;;3.70;;
21235;SDS011;10775;42.678;26.324;2023-03-15T07:45:31;4.55;;;3.15;;
21235;SDS011;10775;42.678;26.324;2023-03-15T07:47:59;6.80;;;3.75;;
21235;SDS011;10775;42.678;26.324;2023-03-15T07:50:25;5.22;;;3.10;;
21235;SDS011;10775;42.678;26.324;2023-03-15T07:52:50;5.18;;;2.90;;
21235;SDS011;10775;42.678;26.324;2023-03-15T07:55:16;6.18;;;3.53;;
21235;SDS011;10775;42.678;26.324;2023-03-15T07:57:42;6.45;;;3.53;;
21235;SDS011;10775;42.678;26.324;2023-03-15T08:00:08;6.65;;;3.53;;
21235;SDS011;10775;42.678;26.324;2023-03-15T08:02:36;7.93;;;3.40;;
21235;SDS011;10775;42.678;26.324;2023-03-15T08:05:01;6.80;;;3.85;;
21235;SDS011;10775;42.678;26.324;2023-03-15T08:07:28;5.65;;;3.25;;
21235;SDS011;10775;42.678;26.324;2023-03-15T08:09:54;5.50;;;3.03;;
21235;SDS011;10775;42.678;26.324;2023-03-15T08:12:21;6.10;;;3.42;;
21235;SDS011;10775;42.678;26.324;2023-03-15T08:14:47;5.22;;;2.90;;
21235;SDS011;10775;42.678;26.324;2023-03-15T08:17:13;5.05;;;3.35;;
21235;SDS011;10775;42.678;26.324;2023-03-15T08:19:40;7.20;;;3.13;;
21235;SDS011;10775;42.678;26.324;2023-03-15T08:22:06;4.85;;;3.28;;
21235;SDS011;10775;42.678;26.324;2023-03-15T08:24:32;7.10;;;3.65;;
21235;SDS011;10775;42.678;26.324;2023-03-15T08:27:00;7.35;;;3.15;;
21235;SDS011;10775;42.678;26.324;2023-03-15T08:29:26;4.05;;;2.70;;
21235;SDS011;10775;42.678;26.324;2023-03-15T08:31:52;4.55;;;2.92;;
21235;SDS011;10775;42.678;26.324;2023-03-15T08:34:17;5.93;;;3.42;;
21235;SDS011;10775;42.678;26.324;2023-03-15T08:36:45;7.13;;;4.00;;
21235;SDS011;10775;42.678;26.324;2023-03-15T08:39:11;8.20;;;3.45;;
21235;SDS011;10775;42.678;26.324;2023-03-15T08:41:37;6.32;;;3.03;;
21235;SDS011;10775;42.678;26.324;2023-03-15T08:44:02;5.82;;;2.97;;
21235;SDS011;10775;42.678;26.324;2023-03-15T08:46:28;6.55;;;3.00;;
21235;SDS011;10775;42.678;26.324;2023-03-15T08:48:54;5.20;;;3.03;;
21235;SDS011;10775;42.678;26.324;2023-03-15T08:51:19;6.30;;;3.40;;
21235;SDS011;10775;42.678;26.324;2023-03-15T08:53:46;7.68;;;2.80;;
21235;SDS011;10775;42.678;26.324;2023-03-15T08:56:11;4.57;;;2.97;;
21235;SDS011;10775;42.678;26.324;2023-03-15T08:58:37;6.38;;;2.42;;
21235;SDS011;10775;42.678;26.324;2023-03-15T09:01:02;7.60;;;3.65;;
21235;SDS011;10775;42.678;26.324;2023-03-15T09:03:29;6.68;;;3.70;;
21235;SDS011;10775;42.678;26.324;2023-03-15T09:05:57;10.57;;;3.72;;
21235;SDS011;10775;42.678;26.324;2023-03-15T09:08:23;5.40;;;3.47;;
21235;SDS011;10775;42.678;26.324;2023-03-15T09:10:53;6.50;;;3.80;;
21235;SDS011;10775;42.678;26.324;2023-03-15T09:13:20;9.00;;;4.10;;
21235;SDS011;10775;42.678;26.324;2023-03-15T09:15:47;5.68;;;3.67;;
21235;SDS011;10775;42.678;26.324;2023-03-15T09:18:13;7.03;;;4.20;;
21235;SDS011;10775;42.678;26.324;2023-03-15T09:20:39;8.40;;;4.45;;
21235;SDS011;10775;42.678;26.324;2023-03-15T09:23:05;7.40;;;3.92;;
21235;SDS011;10775;42.678;26.324;2023-03-15T09:25:30;10.25;;;5.00;;
21235;SDS011;10775;42.678;26.324;2023-03-15T09:27:56;9.77;;;3.97;;
21235;SDS011;10775;42.678;26.324;2023-03-15T09:30:21;12.98;;;4.03;;
21235;SDS011;10775;42.678;26.324;2023-03-15T09:32:47;9.38;;;4.10;;
21235;SDS011;10775;42.678;26.324;2023-03-15T09:35:13;8.40;;;4.45;;
21235;SDS011;10775;42.678;26.324;2023-03-15T09:37:40;7.68;;;3.42;;
21235;SDS011;10775;42.678;26.324;2023-03-15T09:40:13;7.47;;;4.15;;
21235;SDS011;10775;42.678;26.324;2023-03-15T09:45:30;12.32;;;3.63;;
21235;SDS011;10775;42.678;26.324;2023-03-15T09:48:04;10.32;;;4.05;;
21235;SDS011;10775;42.678;26.324;2023-03-15T09:50:38;6.93;;;3.75;;
21235;SDS011;10775;42.678;26.324;2023-03-15T09:53:27;6.55;;;3.78;;
21235;SDS011;10775;42.678;26.324;2023-03-15T09:55:58;8.68;;;3.95;;
21235;SDS011;10775;42.678;26.324;2023-03-15T09:58:24;7.22;;;4.38;;
21235;SDS011;10775;42.678;26.324;2023-03-15T10:01:04;8.15;;;4.75;;
21235;SDS011;10775;42.678;26.324;2023-03-15T10:08:36;9.13;;;4.90;;
21235;SDS011;10775;42.678;26.324;2023-03-15T10:16:57;7.28;;;4.28;;
21235;SDS011;10775;42.678;26.324;2023-03-15T10:19:43;8.18;;;4.72;;
21235;SDS011;10775;42.678;26.324;2023-03-15T10:27:20;6.57;;;3.60;;
21235;SDS011;10775;42.678;26.324;2023-03-15T10:29:51;10.48;;;5.70;;
21235;SDS011;10775;42.678;26.324;2023-03-15T10:32:21;5.68;;;3.05;;
21235;SDS011;10775;42.678;26.324;2023-03-15T10:34:52;5.97;;;3.15;;
21235;SDS011;10775;42.678;26.324;2023-03-15T10:37:21;11.65;;;4.18;;
21235;SDS011;10775;42.678;26.324;2023-03-15T10:39:54;5.78;;;3.40;;
21235;SDS011;10775;42.678;26.324;2023-03-15T10:42:32;4.63;;;2.92;;
21235;SDS011;10775;42.678;26.324;2023-03-15T10:44:58;5.55;;;3.08;;
21235;SDS011;10775;42.678;26.324;2023-03-15T10:47:39;11.57;;;6.35;;
21235;SDS011;10775;42.678;26.324;2023-03-15T10:50:07;6.95;;;3.20;;
21235;SDS011;10775;42.678;26.324;2023-03-15T10:52:35;5.88;;;3.40;;
21235;SDS011;10775;42.678;26.324;2023-03-15T10:55:06;6.10;;;3.13;;
21235;SDS011;10775;42.678;26.324;2023-03-15T10:57:41;7.75;;;3.13;;
21235;SDS011;10775;42.678;26.324;2023-03-15T11:02:48;7.88;;;3.20;;
21235;SDS011;10775;42.678;26.324;2023-03-15T11:05:16;5.90;;;2.90;;
21235;SDS011;10775;42.678;26.324;2023-03-15T11:07:56;6.15;;;3.28;;
21235;SDS011;10775;42.678;26.324;2023-03-15T11:10:24;6.38;;;3.10;;
21235;SDS011;10775;42.678;26.324;2023-03-15T11:13:07;4.85;;;3.20;;
21235;SDS011;10775;42.678;26.324;2023-03-15T11:15:48;7.00;;;3.05;;
21235;SDS011;10775;42.678;26.324;2023-03-15T11:18:25;6.07;;;2.85;;
21235;SDS011;10775;42.678;26.324;2023-03-15T11:21:03;6.22;;;2.72;;
21235;SDS011;10775;42.678;26.324;2023-03-15T11:23:33;10.27;;;4.07;;
21235;SDS011;10775;42.678;26.324;2023-03-15T11:26:01;6.00;;;3.15;;
21235;SDS011;10775;42.678;26.324;2023-03-15T11:28:28;6.97;;;2.92;;
21235;SDS011;10775;42.678;26.324;2023-03-15T11:30:56;8.45;;;3.55;;
21235;SDS011;10775;42.678;26.324;2023-03-15T11:36:04;8.45;;;3.67;;
21235;SDS011;10775;42.678;26.324;2023-03-15T11:38:36;9.85;;;4.32;;
21235;SDS011;10775;42.678;26.324;2023-03-15T11:41:28;9.55;;;4.10;;
21235;SDS011;10775;42.678;26.324;2023-03-15T11:46:46;9.68;;;4.07;;
21235;SDS011;10775;42.678;26.324;2023-03-15T11:49:15;12.67;;;5.77;;
21235;SDS011;10775;42.678;26.324;2023-03-15T11:51:55;8.50;;;3.90;;
21235;SDS011;10775;42.678;26.324;2023-03-15T11:54:21;7.68;;;3.60;;
21235;SDS011;10775;42.678;26.324;2023-03-15T11:56:54;7.30;;;4.07;;
21235;SDS011;10775;42.678;26.324;2023-03-15T11:59:29;10.25;;;3.40;;
21235;SDS011;10775;42.678;26.324;2023-03-15T12:02:46;8.38;;;4.15;;
21235;SDS011;10775;42.678;26.324;2023-03-15T12:04:56;7.97;;;3.70;;
21235;SDS011;10775;42.678;26.324;2023-03-15T12:09:55;7.53;;;3.60;;
21235;SDS011;10775;42.678;26.324;2023-03-15T12:15:03;5.80;;;2.55;;
21235;SDS011;10775;42.678;26.324;2023-03-15T12:17:37;9.35;;;5.15;;
21235;SDS011;10775;42.678;26.324;2023-03-15T12:22:42;7.95;;;3.50;;
21235;SDS011;10775;42.678;26.324;2023-03-15T12:27:54;5.57;;;2.67;;
21235;SDS011;10775;42.678;26.324;2023-03-15T12:30:29;5.80;;;3.35;;
21235;SDS011;10775;42.678;26.324;2023-03-15T12:32:57;4.93;;;2.92;;
21235;SDS011;10775;42.678;26.324;2023-03-15T12:35:26;4.90;;;3.13;;
21235;SDS011;10775;42.678;26.324;2023-03-15T12:37:56;7.30;;;3.00;;
21235;SDS011;10775;42.678;26.324;2023-03-15T12:40:39;6.43;;;2.90;;
21235;SDS011;10775;42.678;26.324;2023-03-15T12:43:14;5.82;;;3.10;;
21235;SDS011;10775;42.678;26.324;2023-03-15T12:45:40;3.33;;;2.42;;
21235;SDS011;10775;42.678;26.324;2023-03-15T12:59:02;6.18;;;2.90;;
21235;SDS011;10775;42.678;26.324;2023-03-15T13:01:34;4.88;;;2.67;;
21235;SDS011;10775;42.678;26.324;2023-03-15T13:04:00;6.43;;;3.58;;
21235;SDS011;10775;42.678;26.324;2023-03-15T13:06:35;6.50;;;3.53;;
21235;SDS011;10775;42.678;26.324;2023-03-15T13:12:00;5.53;;;2.38;;
21235;SDS011;10775;42.678;26.324;2023-03-15T13:14:37;5.43;;;2.30;;
21235;SDS011;10775;42.678;26.324;2023-03-15T13:22:51;6.22;;;4.38;;
21235;SDS011;10775;42.678;26.324;2023-03-15T13:25:48;6.07;;;2.50;;
21235;SDS011;10775;42.678;26.324;2023-03-15T13:28:34;4.20;;;2.58;;
21235;SDS011;10775;42.678;26.324;2023-03-15T13:31:22;7.93;;;4.25;;
21235;SDS011;10775;42.678;26.324;2023-03-15T13:33:53;4.43;;;2.70;;
21235;SDS011;10775;42.678;26.324;2023-03-15T13:36:27;5.60;;;3.53;;
21235;SDS011;10775;42.678;26.324;2023-03-15T13:39:24;11.02;;;5.07;;
21235;SDS011;10775;42.678;26.324;2023-03-15T13:42:05;8.98;;;4.43;;
21235;SDS011;10775;42.678;26.324;2023-03-15T13:44:43;9.77;;;4.57;;
21235;SDS011;10775;42.678;26.324;2023-03-15T13:47:17;10.85;;;4.90;;
21235;SDS011;10775;42.678;26.324;2023-03-15T13:49:46;4.65;;;2.60;;
21235;SDS011;10775;42.678;26.324;2023-03-15T13:52:11;4.93;;;2.63;;
21235;SDS011;10775;42.678;26.324;2023-03-15T13:54:38;6.47;;;2.67;;
21235;SDS011;10775;42.678;26.324;2023-03-15T13:57:15;6.15;;;3.00;;
21235;SDS011;10775;42.678;26.324;2023-03-15T13:59:50;4.88;;;2.80;;
21235;SDS011;10775;42.678;26.324;2023-03-15T14:02:20;6.10;;;3.13;;
21235;SDS011;10775;42.678;26.324;2023-03-15T14:04:52;6.03;;;2.80;;
21235;SDS011;10775;42.678;26.324;2023-03-15T14:12:37;7.38;;;3.10;;
21235;SDS011;10775;42.678;26.324;2023-03-15T14:15:02;5.60;;;2.72;;
21235;SDS011;10775;42.678;26.324;2023-03-15T14:17:38;5.63;;;2.83;;
21235;SDS011;10775;42.678;26.324;2023-03-15T14:20:17;5.45;;;2.65;;
21235;SDS011;10775;42.678;26.324;2023-03-15T14:22:42;5.72;;;3.10;;
21235;SDS011;10775;42.678;26.324;2023-03-15T14:25:20;4.68;;;2.80;;
21235;SDS011;10775;42.678;26.324;2023-03-15T14:27:46;3.97;;;2.42;;
21235;SDS011;10775;42.678;26.324;2023-03-15T14:30:22;6.95;;;2.78;;
21235;SDS011;10775;42.678;26.324;2023-03-15T14:32:51;4.25;;;2.08;;
21235;SDS011;10775;42.678;26.324;2023-03-15T14:35:29;5.55;;;2.63;;
21235;SDS011;10775;42.678;26.324;2023-03-15T14:42:59;5.57;;;2.58;;
21235;SDS011;10775;42.678;26.324;2023-03-15T14:45:25;6.60;;;2.80;;
21235;SDS011;10775;42.678;26.324;2023-03-15T14:47:52;5.05;;;2.45;;
21235;SDS011;10775;42.678;26.324;2023-03-15T14:50:22;6.28;;;2.63;;
21235;SDS011;10775;42.678;26.324;2023-03-15T14:52:51;4.27;;;2.50;;
21235;SDS011;10775;42.678;26.324;2023-03-15T14:55:19;4.07;;;2.55;;
21235;SDS011;10775;42.678;26.324;2023-03-15T14:57:47;5.22;;;3.05;;
21235;SDS011;10775;42.678;26.324;2023-03-15T15:00:14;6.43;;;3.05;;
21235;SDS011;10775;42.678;26.324;2023-03-15T15:02:42;5.78;;;2.95;;
21235;SDS011;10775;42.678;26.324;2023-03-15T15:05:17;6.32;;;3.53;;
21235;SDS011;10775;42.678;26.324;2023-03-15T15:07:47;4.95;;;2.53;;
21235;SDS011;10775;42.678;26.324;2023-03-15T15:10:14;8.65;;;2.90;;
21235;SDS011;10775;42.678;26.324;2023-03-15T15:12:39;8.93;;;4.85;;
21235;SDS011;10775;42.678;26.324;2023-03-15T15:15:23;5.55;;;3.30;;
21235;SDS011;10775;42.678;26.324;2023-03-15T15:17:48;11.48;;;4.07;;
21235;SDS011;10775;42.678;26.324;2023-03-15T15:20:14;7.00;;;3.60;;
21235;SDS011;10775;42.678;26.324;2023-03-15T15:22:41;6.03;;;3.50;;
21235;SDS011;10775;42.678;26.324;2023-03-15T15:25:11;6.30;;;3.58;;
21235;SDS011;10775;42.678;26.324;2023-03-15T15:27:42;7.57;;;4.10;;
21235;SDS011;10775;42.678;26.324;2023-03-15T15:30:09;7.10;;;4.20;;
21235;SDS011;10775;42.678;26.324;2023-03-15T15:32:40;11.45;;;4.18;;
21235;SDS011;10775;42.678;26.324;2023-03-15T15:35:08;12.73;;;7.13;;
21235;SDS011;10775;42.678;26.324;2023-03-15T15:37:35;12.52;;;6.57;;
21235;SDS011;10775;42.678;26.324;2023-03-15T15:40:00;9.40;;;5.38;;
21235;SDS011;10775;42.678;26.324;2023-03-15T15:42:26;10.27;;;6.53;;
21235;SDS011;10775;42.678;26.324;2023-03-15T15:44:51;8.23;;;4.30;;
21235;SDS011;10775;42.678;26.324;2023-03-15T15:47:17;8.05;;;4.30;;
21235;SDS011;10775;42.678;26.324;2023-03-15T15:49:42;9.45;;;5.30;;
21235;SDS011;10775;42.678;26.324;2023-03-15T15:52:10;7.60;;;5.05;;
21235;SDS011;10775;42.678;26.324;2023-03-15T15:54:37;9.70;;;6.20;;
21235;SDS011;10775;42.678;26.324;2023-03-15T15:57:02;12.80;;;6.78;;